Time;durP1;ratioP1;P1;durP2;ratioP2;P2;SDS_P1;SDS_P2;PMS_P1;PMS_P2;Temp;Humidity;BMP_temperature;BMP_pressure;BME280_temperature;BME280_humidity;BME280_pressure;Samples;Min_cycle;Max_cycle;Signal;HPM_P1;HPM_P2
2022/11/19 00:02:00;;;;;;;0.80;0.80;;;;;;;;;;5108346;28;20653;-63
2022/11/19 00:04:27;;;;;;;0.70;0.60;;;;;;;;;;5108080;28;20235;-63
2022/11/19 00:06:54;;;;;;;0.60;0.60;;;;;;;;;;5088210;28;20760;-63
2022/11/19 00:09:21;;;;;;;0.80;0.80;;;;;;;;;;5087932;28;20979;-63
2022/11/19 00:14:34;;;;;;;0.60;0.60;;;;;;;;;;5094586;28;20237;-63
2022/11/19 00:17:01;;;;;;;0.60;0.57;;;;;;;;;;5091562;28;20210;-63
2022/11/19 00:19:28;;;;;;;0.47;0.47;;;;;;;;;;5095540;28;20283;-64
2022/11/19 00:21:55;;;;;;;0.80;0.80;;;;;;;;;;5100689;28;20610;-63
2022/11/19 00:24:22;;;;;;;1.00;0.67;;;;;;;;;;5093513;28;20202;-63
2022/11/19 00:26:50;;;;;;;1.57;0.80;;;;;;;;;;5091428;28;20212;-63
2022/11/19 00:29:17;;;;;;;0.50;0.50;;;;;;;;;;5106559;28;20208;-63
2022/11/19 00:31:45;;;;;;;0.60;0.60;;;;;;;;;;5110453;28;20202;-63
2022/11/19 00:34:12;;;;;;;3.80;0.67;;;;;;;;;;5104076;28;20236;-63
2022/11/19 00:36:39;;;;;;;0.60;0.60;;;;;;;;;;5107397;28;20201;-63
2022/11/19 00:39:07;;;;;;;0.90;0.80;;;;;;;;;;5103467;28;20217;-64
2022/11/19 00:41:34;;;;;;;0.70;0.70;;;;;;;;;;5109377;28;20206;-63
2022/11/19 00:44:01;;;;;;;1.10;1.10;;;;;;;;;;5108225;28;20198;-63
2022/11/19 00:46:29;;;;;;;6.73;0.70;;;;;;;;;;5097883;28;20209;-64
2022/11/19 00:48:59;;;;;;;1.37;1.27;;;;;;;;;;5110735;28;20238;-63
2022/11/19 00:51:28;;;;;;;1.07;0.97;;;;;;;;;;5093589;28;20210;-64
2022/11/19 00:53:55;;;;;;;0.63;0.63;;;;;;;;;;5096777;28;20208;-63
2022/11/19 00:56:23;;;;;;;2.10;1.43;;;;;;;;;;5108859;28;20201;-63
2022/11/19 00:58:50;;;;;;;1.37;1.23;;;;;;;;;;5093201;28;20234;-63
2022/11/19 01:01:18;;;;;;;4.87;1.50;;;;;;;;;;5090723;28;20206;-63
2022/11/19 01:03:46;;;;;;;1.40;1.30;;;;;;;;;;5106634;28;20614;-63
2022/11/19 01:06:16;;;;;;;1.00;1.00;;;;;;;;;;5092461;28;20209;-63
2022/11/19 01:08:44;;;;;;;1.30;1.20;;;;;;;;;;5092914;28;20536;-63
2022/11/19 01:11:12;;;;;;;1.07;1.07;;;;;;;;;;5108288;28;20214;-63
2022/11/19 01:13:39;;;;;;;1.20;1.10;;;;;;;;;;5097841;28;20213;-63
2022/11/19 01:16:08;;;;;;;2.30;1.20;;;;;;;;;;5090635;28;20230;-63
2022/11/19 01:18:35;;;;;;;1.40;1.30;;;;;;;;;;5090825;28;20206;-63
2022/11/19 01:21:02;;;;;;;1.10;1.10;;;;;;;;;;5093679;28;20197;-63
2022/11/19 01:23:32;;;;;;;0.27;0.27;;;;;;;;;;5101696;28;20202;-63
2022/11/19 01:25:59;;;;;;;4.60;1.30;;;;;;;;;;5100178;28;20834;-63
2022/11/19 01:28:26;;;;;;;1.07;1.07;;;;;;;;;;5099815;28;20216;-62
2022/11/19 01:30:53;;;;;;;0.90;0.83;;;;;;;;;;5091051;28;20195;-63
2022/11/19 01:33:21;;;;;;;0.67;0.67;;;;;;;;;;5098404;28;20213;-62
2022/11/19 01:35:55;;;;;;;0.87;0.87;;;;;;;;;;5093752;28;20584;-62
2022/11/19 01:38:22;;;;;;;1.03;0.63;;;;;;;;;;5104920;28;20216;-63
2022/11/19 01:40:50;;;;;;;1.87;1.77;;;;;;;;;;5108076;28;20205;-63
2022/11/19 01:43:17;;;;;;;2.40;1.97;;;;;;;;;;5108476;28;20579;-63
2022/11/19 01:45:47;;;;;;;1.87;1.53;;;;;;;;;;5095629;28;20211;-62
2022/11/19 01:48:15;;;;;;;2.43;1.77;;;;;;;;;;5091427;28;20317;-63
2022/11/19 01:50:45;;;;;;;1.43;1.33;;;;;;;;;;5093636;28;20205;-63
2022/11/19 01:53:13;;;;;;;1.13;1.13;;;;;;;;;;5092014;28;20260;-63
2022/11/19 01:55:42;;;;;;;1.70;1.60;;;;;;;;;;5098074;28;20244;-63
2022/11/19 01:58:12;;;;;;;4.00;1.27;;;;;;;;;;5107300;28;20232;-62
2022/11/19 02:00:39;;;;;;;1.10;1.10;;;;;;;;;;5092319;28;20210;-63
2022/11/19 02:03:06;;;;;;;1.23;0.90;;;;;;;;;;5089942;28;20214;-63
2022/11/19 02:05:33;;;;;;;1.67;1.57;;;;;;;;;;5090513;28;20205;-63
2022/11/19 02:08:00;;;;;;;2.07;1.97;;;;;;;;;;5094754;28;20208;-63
2022/11/19 02:10:31;;;;;;;2.07;1.87;;;;;;;;;;5105149;28;20213;-63
2022/11/19 02:13:03;;;;;;;1.20;1.10;;;;;;;;;;5105466;28;20204;-62
2022/11/19 02:15:37;;;;;;;0.80;0.80;;;;;;;;;;5104830;28;20751;-63
2022/11/19 02:18:10;;;;;;;6.47;2.10;;;;;;;;;;5099426;28;20209;-63
2022/11/19 02:20:44;;;;;;;1.63;1.53;;;;;;;;;;5092383;28;20199;-63
2022/11/19 02:23:30;;;;;;;4.43;2.20;;;;;;;;;;5088920;28;20199;-64
2022/11/19 02:26:20;;;;;;;1.80;1.50;;;;;;;;;;5089752;28;20201;-65
2022/11/19 02:28:48;;;;;;;1.27;1.27;;;;;;;;;;5098343;28;20683;-63
2022/11/19 02:31:19;;;;;;;2.10;2.00;;;;;;;;;;5099141;28;20206;-62
2022/11/19 02:33:50;;;;;;;1.70;1.60;;;;;;;;;;5092627;28;20200;-63
2022/11/19 02:36:20;;;;;;;1.30;1.30;;;;;;;;;;5098291;28;20233;-63
2022/11/19 02:38:50;;;;;;;3.83;1.03;;;;;;;;;;5101958;28;20216;-62
2022/11/19 02:41:35;;;;;;;1.07;1.07;;;;;;;;;;5104039;28;20201;-63
2022/11/19 02:46:56;;;;;;;2.50;2.30;;;;;;;;;;5091388;28;20253;-63
2022/11/19 02:49:25;;;;;;;3.27;1.17;;;;;;;;;;5089971;28;20199;-63
2022/11/19 02:51:59;;;;;;;1.10;1.10;;;;;;;;;;5089995;28;20215;-63
2022/11/19 02:54:27;;;;;;;0.80;0.80;;;;;;;;;;5094808;28;20228;-63
2022/11/19 02:56:54;;;;;;;3.33;2.03;;;;;;;;;;5101217;28;20619;-63
2022/11/19 03:04:56;;;;;;;6.50;1.40;;;;;;;;;;5106083;28;20343;-63
2022/11/19 03:07:23;;;;;;;1.13;0.77;;;;;;;;;;5099996;28;20202;-63
2022/11/19 03:09:53;;;;;;;0.80;0.80;;;;;;;;;;5094844;28;20219;-64
2022/11/19 03:12:23;;;;;;;4.13;2.80;;;;;;;;;;5098468;28;20202;-64
2022/11/19 03:17:48;;;;;;;2.40;2.30;;;;;;;;;;5100572;28;20260;-63
2022/11/19 03:20:19;;;;;;;2.40;1.67;;;;;;;;;;5101887;28;20210;-64
2022/11/19 03:22:49;;;;;;;3.33;1.87;;;;;;;;;;5091293;28;20203;-67
2022/11/19 03:25:18;;;;;;;0.70;0.63;;;;;;;;;;5107380;28;20201;-63
2022/11/19 03:27:47;;;;;;;3.50;2.40;;;;;;;;;;5095766;28;20212;-67
2022/11/19 03:30:15;;;;;;;3.97;1.83;;;;;;;;;;5090556;28;20210;-63
2022/11/19 03:32:45;;;;;;;0.83;0.80;;;;;;;;;;5091483;28;20221;-68
2022/11/19 03:35:15;;;;;;;1.70;1.60;;;;;;;;;;5103976;28;20234;-67
2022/11/19 03:37:44;;;;;;;2.13;1.63;;;;;;;;;;5091006;28;20210;-66
2022/11/19 03:40:12;;;;;;;3.57;3.27;;;;;;;;;;5097616;28;20678;-64
2022/11/19 03:42:40;;;;;;;2.23;2.13;;;;;;;;;;5096972;28;20214;-64
2022/11/19 03:45:10;;;;;;;0.87;0.87;;;;;;;;;;5102624;28;20201;-69
2022/11/19 03:47:39;;;;;;;2.87;2.20;;;;;;;;;;5090423;28;20575;-63
2022/11/19 03:50:13;;;;;;;1.50;1.40;;;;;;;;;;5092346;28;20198;-69
2022/11/19 03:52:40;;;;;;;2.10;2.00;;;;;;;;;;5094575;28;20207;-64
2022/11/19 03:55:07;;;;;;;2.10;2.00;;;;;;;;;;5093858;28;20685;-63
2022/11/19 03:57:34;;;;;;;1.80;1.37;;;;;;;;;;5101661;28;20220;-69
2022/11/19 04:00:01;;;;;;;9.13;1.57;;;;;;;;;;5101379;28;20198;-63
2022/11/19 04:02:28;;;;;;;1.43;1.33;;;;;;;;;;5094572;28;20200;-61
2022/11/19 04:04:55;;;;;;;0.33;0.27;;;;;;;;;;5097015;28;20197;-62
2022/11/19 04:07:24;;;;;;;1.87;1.70;;;;;;;;;;5100915;28;20323;-61
2022/11/19 04:09:51;;;;;;;0.93;0.93;;;;;;;;;;5105881;28;20224;-61
2022/11/19 04:12:19;;;;;;;1.47;1.40;;;;;;;;;;5105330;28;20691;-61
2022/11/19 04:14:47;;;;;;;2.63;2.43;;;;;;;;;;5093400;28;20209;-61
2022/11/19 04:17:14;;;;;;;1.57;1.47;;;;;;;;;;5107155;28;20208;-62
2022/11/19 04:19:41;;;;;;;4.63;2.73;;;;;;;;;;5105531;28;20665;-61
2022/11/19 04:22:08;;;;;;;2.53;1.80;;;;;;;;;;5096746;28;20197;-61
2022/11/19 04:24:37;;;;;;;1.57;1.47;;;;;;;;;;5108227;28;20206;-61
2022/11/19 04:27:04;;;;;;;1.97;1.87;;;;;;;;;;5094339;28;20414;-61
2022/11/19 04:29:31;;;;;;;2.07;1.53;;;;;;;;;;5092226;28;20203;-61
2022/11/19 04:31:58;;;;;;;2.83;2.47;;;;;;;;;;5094149;28;20229;-61
2022/11/19 04:34:25;;;;;;;2.10;1.90;;;;;;;;;;5093749;28;20214;-60
2022/11/19 04:36:52;;;;;;;1.17;1.07;;;;;;;;;;5093998;28;20222;-61
2022/11/19 04:39:19;;;;;;;0.20;0.20;;;;;;;;;;5106868;28;20229;-61
2022/11/19 04:41:48;;;;;;;2.53;2.33;;;;;;;;;;5100109;28;20214;-61
2022/11/19 04:44:15;;;;;;;2.60;2.40;;;;;;;;;;5093180;28;20198;-61
2022/11/19 04:46:42;;;;;;;1.97;0.90;;;;;;;;;;5092135;28;20191;-63
2022/11/19 04:49:09;;;;;;;2.30;1.43;;;;;;;;;;5101043;28;20209;-62
2022/11/19 04:51:36;;;;;;;1.20;1.00;;;;;;;;;;5099946;28;20205;-62
2022/11/19 04:54:03;;;;;;;2.77;2.57;;;;;;;;;;5101328;28;20592;-63
2022/11/19 04:56:30;;;;;;;3.83;2.10;;;;;;;;;;5093035;28;20232;-62
2022/11/19 04:58:59;;;;;;;3.83;2.73;;;;;;;;;;5091656;28;20233;-62
2022/11/19 05:01:26;;;;;;;0.90;0.90;;;;;;;;;;5090769;28;20768;-62
2022/11/19 05:03:53;;;;;;;1.63;1.40;;;;;;;;;;5096207;28;20202;-61
2022/11/19 05:06:20;;;;;;;2.83;2.10;;;;;;;;;;5096277;28;20205;-62
2022/11/19 05:08:47;;;;;;;1.97;1.87;;;;;;;;;;5105294;28;20209;-62
2022/11/19 05:11:14;;;;;;;2.33;1.63;;;;;;;;;;5098513;28;20205;-61
2022/11/19 05:13:41;;;;;;;2.20;1.60;;;;;;;;;;5098875;28;20197;-61
2022/11/19 05:16:10;;;;;;;1.73;0.83;;;;;;;;;;5103587;28;20245;-62
2022/11/19 05:18:37;;;;;;;4.03;2.87;;;;;;;;;;5107811;28;20574;-61
2022/11/19 05:21:04;;;;;;;1.27;1.27;;;;;;;;;;5104440;28;20662;-62
2022/11/19 05:23:31;;;;;;;1.20;1.10;;;;;;;;;;5095365;28;20213;-62
2022/11/19 05:25:58;;;;;;;2.30;2.00;;;;;;;;;;5092588;28;20221;-61
2022/11/19 05:28:25;;;;;;;4.20;2.07;;;;;;;;;;5093039;28;20218;-62
2022/11/19 05:30:54;;;;;;;2.20;1.53;;;;;;;;;;5093002;28;20222;-62
2022/11/19 05:33:22;;;;;;;0.47;0.47;;;;;;;;;;5096185;28;20566;-62
2022/11/19 05:35:49;;;;;;;1.53;1.53;;;;;;;;;;5091779;28;20230;-61
2022/11/19 05:38:16;;;;;;;1.30;1.30;;;;;;;;;;5101033;28;20206;-61
2022/11/19 05:40:44;;;;;;;2.00;1.90;;;;;;;;;;5100431;28;20943;-62
2022/11/19 05:43:12;;;;;;;2.13;1.50;;;;;;;;;;5091241;28;20264;-62
2022/11/19 05:45:39;;;;;;;2.60;0.97;;;;;;;;;;5100166;28;20209;-61
2022/11/19 05:48:06;;;;;;;0.47;0.47;;;;;;;;;;5107584;28;20213;-62
2022/11/19 05:50:35;;;;;;;1.20;1.10;;;;;;;;;;5108143;28;20251;-62
2022/11/19 05:53:03;;;;;;;0.60;0.40;;;;;;;;;;5107971;28;20206;-62
2022/11/19 05:55:31;;;;;;;1.07;1.00;;;;;;;;;;5095650;28;20227;-62
2022/11/19 05:57:58;;;;;;;1.30;1.00;;;;;;;;;;5093921;28;20242;-61
2022/11/19 06:00:25;;;;;;;0.60;0.53;;;;;;;;;;5094793;28;20218;-61
2022/11/19 06:02:52;;;;;;;1.30;1.30;;;;;;;;;;5098266;28;20205;-61
2022/11/19 06:05:19;;;;;;;1.23;1.13;;;;;;;;;;5092467;28;20568;-61
2022/11/19 06:07:47;;;;;;;0.63;0.63;;;;;;;;;;5095253;28;20214;-62
2022/11/19 06:10:14;;;;;;;0.07;0.07;;;;;;;;;;5091355;28;20198;-62
2022/11/19 06:12:42;;;;;;;0.43;0.43;;;;;;;;;;5091798;28;20202;-62
2022/11/19 06:15:10;;;;;;;1.30;0.30;;;;;;;;;;5091666;28;20230;-62
2022/11/19 06:17:37;;;;;;;0.87;0.87;;;;;;;;;;5090326;28;20729;-62
2022/11/19 06:20:07;;;;;;;0.37;0.37;;;;;;;;;;5096720;28;20872;-62
2022/11/19 06:22:35;;;;;;;0.97;0.97;;;;;;;;;;5102103;28;20681;-62
2022/11/19 06:25:03;;;;;;;1.57;1.40;;;;;;;;;;5098636;28;20314;-61
2022/11/19 06:27:30;;;;;;;0.77;0.30;;;;;;;;;;5098275;28;20688;-61
2022/11/19 06:29:57;;;;;;;1.00;1.00;;;;;;;;;;5091228;28;20209;-62
2022/11/19 06:32:24;;;;;;;1.30;1.20;;;;;;;;;;5108038;28;20198;-63
2022/11/19 06:34:52;;;;;;;1.00;1.00;;;;;;;;;;5105361;28;20671;-61
2022/11/19 06:37:19;;;;;;;1.53;1.50;;;;;;;;;;5095145;28;20245;-61
2022/11/19 06:39:46;;;;;;;1.80;1.03;;;;;;;;;;5100553;28;20620;-61
2022/11/19 06:44:59;;;;;;;2.00;1.50;;;;;;;;;;5090132;28;20335;-61
2022/11/19 06:47:26;;;;;;;1.70;1.40;;;;;;;;;;5104527;28;20212;-61
2022/11/19 06:49:53;;;;;;;1.77;1.67;;;;;;;;;;5101050;28;20669;-61
2022/11/19 06:52:20;;;;;;;1.90;1.00;;;;;;;;;;5092275;28;20202;-62
2022/11/19 06:54:47;;;;;;;1.07;1.07;;;;;;;;;;5092156;28;20217;-61
2022/11/19 06:57:15;;;;;;;2.30;1.43;;;;;;;;;;5088980;28;20550;-61
2022/11/19 06:59:42;;;;;;;3.20;1.80;;;;;;;;;;5105518;28;20201;-62
2022/11/19 07:02:10;;;;;;;0.30;0.30;;;;;;;;;;5107124;28;20256;-61
2022/11/19 07:04:37;;;;;;;1.13;0.60;;;;;;;;;;5103942;28;20195;-61
2022/11/19 07:07:05;;;;;;;1.33;1.23;;;;;;;;;;5098400;28;20216;-61
2022/11/19 07:09:32;;;;;;;1.07;1.07;;;;;;;;;;5104107;28;20257;-61
2022/11/19 07:11:59;;;;;;;1.23;0.80;;;;;;;;;;5104924;28;20288;-61
2022/11/19 07:14:28;;;;;;;0.90;0.43;;;;;;;;;;5092906;28;20214;-61
2022/11/19 07:16:56;;;;;;;0.60;0.60;;;;;;;;;;5088563;28;20230;-61
2022/11/19 07:19:23;;;;;;;2.00;1.20;;;;;;;;;;5104852;28;20194;-61
2022/11/19 07:21:50;;;;;;;2.17;1.40;;;;;;;;;;5090039;28;20589;-61
2022/11/19 07:24:18;;;;;;;2.27;2.07;;;;;;;;;;5089051;28;20230;-62
2022/11/19 07:26:45;;;;;;;1.33;1.23;;;;;;;;;;5088657;28;20205;-62
2022/11/19 07:29:13;;;;;;;0.20;0.20;;;;;;;;;;5089314;28;20206;-61
2022/11/19 07:31:42;;;;;;;1.40;1.30;;;;;;;;;;5089694;28;20214;-62
2022/11/19 07:34:10;;;;;;;1.13;1.03;;;;;;;;;;5099432;28;20205;-62
2022/11/19 07:36:37;;;;;;;2.20;2.00;;;;;;;;;;5106209;28;20217;-61
2022/11/19 07:39:04;;;;;;;1.03;1.03;;;;;;;;;;5092516;28;20305;-61
2022/11/19 07:44:18;;;;;;;2.73;2.00;;;;;;;;;;5065129;28;20198;-61
2022/11/19 07:46:46;;;;;;;1.33;1.23;;;;;;;;;;5093547;28;20213;-61
2022/11/19 07:49:14;;;;;;;3.63;2.03;;;;;;;;;;5099348;28;20287;-62
2022/11/19 07:51:41;;;;;;;1.93;1.83;;;;;;;;;;5100123;28;20609;-61
2022/11/19 07:54:08;;;;;;;2.20;2.07;;;;;;;;;;5090540;28;20225;-62
2022/11/19 07:56:36;;;;;;;1.60;1.50;;;;;;;;;;5096687;28;20225;-62
2022/11/19 07:59:03;;;;;;;2.90;2.10;;;;;;;;;;5103590;28;20236;-61
2022/11/19 08:01:30;;;;;;;2.50;1.73;;;;;;;;;;5090984;28;20210;-62
2022/11/19 08:03:59;;;;;;;1.77;0.50;;;;;;;;;;5105479;28;20197;-61
2022/11/19 08:06:26;;;;;;;1.20;0.73;;;;;;;;;;5093355;28;20682;-61
2022/11/19 08:08:54;;;;;;;3.40;2.43;;;;;;;;;;5087508;28;20213;-60
2022/11/19 08:11:22;;;;;;;4.73;3.40;;;;;;;;;;5095170;28;20225;-61
2022/11/19 08:13:49;;;;;;;2.53;1.20;;;;;;;;;;5095625;28;20202;-61
2022/11/19 08:18:11;;;;;;;3.90;2.57;;;;;;;;;;5093374;28;20236;-61
2022/11/19 08:19:06;;;;;;;2.97;1.37;;;;;;;;;;5094507;28;21051;-61
2022/11/19 08:21:33;;;;;;;3.43;3.23;;;;;;;;;;5097813;28;20202;-61
2022/11/19 08:24:00;;;;;;;4.23;2.00;;;;;;;;;;5098102;28;20206;-61
2022/11/19 08:26:27;;;;;;;4.70;3.50;;;;;;;;;;5095047;28;20205;-61
2022/11/19 08:28:54;;;;;;;2.00;0.67;;;;;;;;;;5093298;28;20948;-62
2022/11/19 08:31:21;;;;;;;1.10;1.00;;;;;;;;;;5103922;28;20214;-63
2022/11/19 08:33:49;;;;;;;3.03;2.40;;;;;;;;;;5105108;28;20194;-62
2022/11/19 08:36:17;;;;;;;2.43;2.17;;;;;;;;;;5090791;28;20312;-62
2022/11/19 08:38:44;;;;;;;3.07;1.77;;;;;;;;;;5106288;28;20248;-62
2022/11/19 08:43:56;;;;;;;0.73;0.73;;;;;;;;;;5108867;28;20262;-61
2022/11/19 08:46:23;;;;;;;3.03;2.50;;;;;;;;;;5091156;28;21130;-61
2022/11/19 08:48:50;;;;;;;3.87;3.50;;;;;;;;;;5101982;28;20210;-61
2022/11/19 08:51:19;;;;;;;2.17;1.97;;;;;;;;;;5100771;28;20659;-61
2022/11/19 08:53:46;;;;;;;2.17;2.07;;;;;;;;;;5102736;28;20271;-60
2022/11/19 08:56:13;;;;;;;3.03;1.67;;;;;;;;;;5104713;28;20202;-60
2022/11/19 08:58:40;;;;;;;1.47;1.23;;;;;;;;;;5098729;28;20244;-63
2022/11/19 09:01:10;;;;;;;3.43;2.53;;;;;;;;;;5100143;28;20202;-67
2022/11/19 09:03:37;;;;;;;2.57;1.87;;;;;;;;;;5095358;28;20209;-67
2022/11/19 09:06:05;;;;;;;3.20;2.90;;;;;;;;;;5098079;28;20209;-65
2022/11/19 09:08:34;;;;;;;4.03;2.73;;;;;;;;;;5095290;28;20217;-64
2022/11/19 09:11:05;;;;;;;4.60;3.23;;;;;;;;;;5096543;28;20209;-67
2022/11/19 09:13:32;;;;;;;4.63;1.97;;;;;;;;;;5093150;28;20206;-62
2022/11/19 09:15:59;;;;;;;0.93;0.93;;;;;;;;;;5093395;28;20324;-63
2022/11/19 09:18:26;;;;;;;3.00;2.27;;;;;;;;;;5107440;28;20223;-62
2022/11/19 09:20:54;;;;;;;1.97;1.73;;;;;;;;;;5098033;28;20228;-62
2022/11/19 09:23:22;;;;;;;2.00;1.83;;;;;;;;;;5104104;28;20201;-62
2022/11/19 09:25:56;;;;;;;1.40;1.37;;;;;;;;;;5096130;28;20289;-62
2022/11/19 09:28:23;;;;;;;1.70;1.30;;;;;;;;;;5091496;28;20201;-62
2022/11/19 09:30:55;;;;;;;8.43;6.10;;;;;;;;;;5091907;28;20205;-62
2022/11/19 09:33:22;;;;;;;3.10;2.83;;;;;;;;;;5090839;28;20209;-62
2022/11/19 09:35:49;;;;;;;1.10;1.00;;;;;;;;;;5095004;28;20194;-62
2022/11/19 09:38:16;;;;;;;13.33;9.67;;;;;;;;;;5092697;28;20226;-60
2022/11/19 09:40:44;;;;;;;1.33;0.90;;;;;;;;;;5091573;28;20226;-62
2022/11/19 09:43:17;;;;;;;5.17;2.37;;;;;;;;;;5092713;28;20210;-61
2022/11/19 09:45:49;;;;;;;1.37;1.27;;;;;;;;;;5096548;28;20933;-61
2022/11/19 09:48:20;;;;;;;0.97;0.93;;;;;;;;;;5106113;28;20628;-60
2022/11/19 09:50:52;;;;;;;1.53;1.23;;;;;;;;;;5107143;28;20318;-66
2022/11/19 09:53:20;;;;;;;1.03;1.03;;;;;;;;;;5101392;28;20233;-61
2022/11/19 09:55:48;;;;;;;1.20;1.10;;;;;;;;;;5101910;28;20750;-61
2022/11/19 09:58:19;;;;;;;2.27;2.17;;;;;;;;;;5090618;28;20329;-61
2022/11/19 10:00:46;;;;;;;29.47;14.70;;;;;;;;;;5097583;28;20210;-60
2022/11/19 10:06:23;;;;;;;2.80;1.73;;;;;;;;;;5088467;28;20288;-62
2022/11/19 10:09:01;;;;;;;1.60;0.60;;;;;;;;;;5093116;28;20664;-62
2022/11/19 10:11:36;;;;;;;0.90;0.90;;;;;;;;;;5107435;28;20269;-62
2022/11/19 10:14:08;;;;;;;1.33;1.30;;;;;;;;;;5103819;28;20197;-62
2022/11/19 10:16:43;;;;;;;4.53;1.77;;;;;;;;;;5092641;28;20197;-61
2022/11/19 10:19:17;;;;;;;7.73;3.90;;;;;;;;;;5092391;28;20218;-62
2022/11/19 10:21:46;;;;;;;4.30;1.23;;;;;;;;;;5090548;28;20213;-62
2022/11/19 10:24:17;;;;;;;1.00;1.00;;;;;;;;;;5100459;28;20210;-63
2022/11/19 10:26:48;;;;;;;1.93;1.53;;;;;;;;;;5100999;28;20220;-61
2022/11/19 10:29:18;;;;;;;2.67;1.93;;;;;;;;;;5108472;28;20781;-61
2022/11/19 10:31:46;;;;;;;5.17;3.50;;;;;;;;;;5106446;28;20205;-61
2022/11/19 10:34:16;;;;;;;0.90;0.90;;;;;;;;;;5106250;28;20251;-61
2022/11/19 10:36:45;;;;;;;1.80;1.67;;;;;;;;;;5089199;28;20228;-61
2022/11/19 10:39:15;;;;;;;1.03;1.03;;;;;;;;;;5098954;28;20199;-62
2022/11/19 10:41:45;;;;;;;2.73;2.53;;;;;;;;;;5094244;28;20213;-62
2022/11/19 10:44:36;;;;;;;2.87;2.67;;;;;;;;;;5088806;28;20297;-62
2022/11/19 10:47:04;;;;;;;4.87;3.27;;;;;;;;;;5091630;28;20208;-61
2022/11/19 10:49:34;;;;;;;1.37;0.90;;;;;;;;;;5103588;28;20212;-61
2022/11/19 10:52:01;;;;;;;1.43;1.17;;;;;;;;;;5089374;28;20718;-61
2022/11/19 10:54:29;;;;;;;0.97;0.93;;;;;;;;;;5092531;28;20249;-61
2022/11/19 10:56:56;;;;;;;0.70;0.70;;;;;;;;;;5090346;28;20233;-61
2022/11/19 10:59:25;;;;;;;1.60;1.50;;;;;;;;;;5100764;28;20609;-61
2022/11/19 11:01:54;;;;;;;2.63;1.50;;;;;;;;;;5100771;28;20209;-61
2022/11/19 11:04:23;;;;;;;2.37;0.93;;;;;;;;;;5096653;28;20201;-61
2022/11/19 11:06:52;;;;;;;1.33;0.57;;;;;;;;;;5092984;28;20210;-62
2022/11/19 11:09:29;;;;;;;1.30;1.13;;;;;;;;;;5098864;28;20208;-61
2022/11/19 11:14:51;;;;;;;0.83;0.83;;;;;;;;;;5090060;28;20588;-61
2022/11/19 11:17:20;;;;;;;2.37;2.20;;;;;;;;;;5089894;28;20224;-60
2022/11/19 11:19:57;;;;;;;1.37;1.27;;;;;;;;;;5088521;28;20220;-61
2022/11/19 11:22:24;;;;;;;0.53;0.53;;;;;;;;;;5103907;28;20201;-62
2022/11/19 11:24:51;;;;;;;0.83;0.30;;;;;;;;;;5088607;28;20229;-62
2022/11/19 11:27:19;;;;;;;1.87;1.33;;;;;;;;;;5098745;28;20209;-59
2022/11/19 11:29:46;;;;;;;2.53;2.33;;;;;;;;;;5103280;28;20266;-61
2022/11/19 11:32:26;;;;;;;0.50;0.50;;;;;;;;;;5105780;28;20202;-60
2022/11/19 11:34:53;;;;;;;1.50;1.50;;;;;;;;;;5106088;28;20213;-61
2022/11/19 11:37:22;;;;;;;1.87;1.10;;;;;;;;;;5099347;28;20230;-62
2022/11/19 11:39:51;;;;;;;0.67;0.63;;;;;;;;;;5088931;28;20221;-61
2022/11/19 11:42:19;;;;;;;3.80;2.23;;;;;;;;;;5103757;28;20202;-61
2022/11/19 11:44:51;;;;;;;6.20;3.27;;;;;;;;;;5088562;28;20210;-61
2022/11/19 11:47:18;;;;;;;3.53;2.47;;;;;;;;;;5087981;28;20213;-62
2022/11/19 11:49:48;;;;;;;1.27;1.27;;;;;;;;;;5092682;28;20562;-62
2022/11/19 11:52:18;;;;;;;1.03;1.03;;;;;;;;;;5089857;28;20642;-64
2022/11/19 11:54:57;;;;;;;2.23;1.90;;;;;;;;;;5084391;28;20237;-62
2022/11/19 11:57:26;;;;;;;1.60;1.50;;;;;;;;;;5087610;28;20794;-62
2022/11/19 11:59:53;;;;;;;9.37;3.53;;;;;;;;;;5088934;28;20221;-62
2022/11/19 12:02:28;;;;;;;1.57;1.47;;;;;;;;;;5098053;28;20209;-63
2022/11/19 12:04:56;;;;;;;0.93;0.93;;;;;;;;;;5089793;28;20206;-63
2022/11/19 12:07:30;;;;;;;1.57;1.43;;;;;;;;;;5088190;28;20214;-63
2022/11/19 12:10:03;;;;;;;0.87;0.87;;;;;;;;;;5092316;28;20201;-63
2022/11/19 12:12:34;;;;;;;0.97;0.97;;;;;;;;;;5092063;28;20214;-63
2022/11/19 12:15:04;;;;;;;2.87;2.57;;;;;;;;;;5093254;28;20194;-64
2022/11/19 12:17:37;;;;;;;3.40;2.30;;;;;;;;;;5109610;28;20232;-62
2022/11/19 12:20:22;;;;;;;0.67;0.67;;;;;;;;;;5110751;28;20205;-63
2022/11/19 12:22:58;;;;;;;0.83;0.83;;;;;;;;;;5110372;28;20577;-65
2022/11/19 12:25:31;;;;;;;1.70;1.60;;;;;;;;;;5094641;28;20206;-62
2022/11/19 12:28:10;;;;;;;0.70;0.70;;;;;;;;;;5098440;28;20205;-64
2022/11/19 12:30:40;;;;;;;0.50;0.50;;;;;;;;;;5092650;28;20202;-63
2022/11/19 12:33:16;;;;;;;2.33;1.57;;;;;;;;;;5091781;28;20213;-62
2022/11/19 12:35:49;;;;;;;3.97;1.97;;;;;;;;;;5092618;28;20209;-62
2022/11/19 12:38:25;;;;;;;2.77;1.60;;;;;;;;;;5090495;28;20291;-63
2022/11/19 12:40:59;;;;;;;2.80;2.50;;;;;;;;;;5089880;28;20209;-62
2022/11/19 12:43:35;;;;;;;2.90;2.10;;;;;;;;;;5098453;28;20744;-62
2022/11/19 12:46:08;;;;;;;2.03;1.87;;;;;;;;;;5090690;28;20222;-63
2022/11/19 12:48:44;;;;;;;1.03;1.03;;;;;;;;;;5094298;28;20201;-63
2022/11/19 12:51:15;;;;;;;1.80;1.70;;;;;;;;;;5090752;28;20255;-63
2022/11/19 12:53:50;;;;;;;0.70;0.67;;;;;;;;;;5095575;28;20715;-63
2022/11/19 12:56:27;;;;;;;2.07;0.77;;;;;;;;;;5090614;28;20201;-64
2022/11/19 12:58:58;;;;;;;2.30;2.10;;;;;;;;;;5103317;28;20226;-63
2022/11/19 13:01:27;;;;;;;2.33;2.13;;;;;;;;;;5091248;28;20241;-64
2022/11/19 13:03:59;;;;;;;5.30;2.80;;;;;;;;;;5091611;28;20257;-63
2022/11/19 13:06:30;;;;;;;1.70;1.23;;;;;;;;;;5092223;28;20221;-64
2022/11/19 13:08:59;;;;;;;2.63;2.53;;;;;;;;;;5092294;28;20205;-64
2022/11/19 13:11:35;;;;;;;2.73;2.50;;;;;;;;;;5101442;28;20245;-63
2022/11/19 13:14:05;;;;;;;0.73;0.73;;;;;;;;;;5094357;28;20193;-64
2022/11/19 13:16:33;;;;;;;4.70;3.00;;;;;;;;;;5103188;28;20210;-64
2022/11/19 13:19:05;;;;;;;2.33;2.07;;;;;;;;;;5093673;28;20232;-63
2022/11/19 13:21:37;;;;;;;4.90;2.90;;;;;;;;;;5089879;28;20205;-63
2022/11/19 13:24:19;;;;;;;1.63;1.53;;;;;;;;;;5103942;28;20202;-64
2022/11/19 13:26:48;;;;;;;1.13;1.13;;;;;;;;;;5110718;28;20212;-64
2022/11/19 13:29:24;;;;;;;1.93;1.53;;;;;;;;;;5107604;28;20202;-63
2022/11/19 13:31:53;;;;;;;5.60;2.17;;;;;;;;;;5110711;28;20220;-63
2022/11/19 13:34:23;;;;;;;3.77;3.30;;;;;;;;;;5101002;28;20209;-63
2022/11/19 13:36:57;;;;;;;1.33;1.13;;;;;;;;;;5100611;28;20206;-65
2022/11/19 13:39:27;;;;;;;1.70;0.90;;;;;;;;;;5108343;28;20214;-64
2022/11/19 13:44:41;;;;;;;4.73;3.70;;;;;;;;;;5091536;28;20702;-66
2022/11/19 13:47:11;;;;;;;3.20;1.67;;;;;;;;;;5093301;28;20207;-63
2022/11/19 13:49:39;;;;;;;6.67;1.83;;;;;;;;;;5098047;28;20667;-64
2022/11/19 13:52:08;;;;;;;2.20;1.57;;;;;;;;;;5090186;28;20202;-65
2022/11/19 13:54:37;;;;;;;9.63;4.23;;;;;;;;;;5095186;28;20243;-63
2022/11/19 13:57:07;;;;;;;2.83;2.63;;;;;;;;;;5093412;28;20666;-64
2022/11/19 13:59:37;;;;;;;5.57;3.47;;;;;;;;;;5093271;28;20226;-64
2022/11/19 14:02:12;;;;;;;5.33;3.07;;;;;;;;;;5087938;28;20210;-64
2022/11/19 14:04:52;;;;;;;3.37;2.80;;;;;;;;;;5090858;28;20216;-64
2022/11/19 14:07:36;;;;;;;2.00;1.70;;;;;;;;;;5100238;28;20209;-63
2022/11/19 14:10:07;;;;;;;4.17;3.00;;;;;;;;;;5109028;28;20202;-66
2022/11/19 14:12:46;;;;;;;7.13;3.57;;;;;;;;;;5089534;28;20207;-63
2022/11/19 14:27:01;;;;;;;1.87;1.77;;;;;;;;;;5106870;28;20259;-63
2022/11/19 14:29:46;;;;;;;4.20;3.23;;;;;;;;;;5106367;28;20202;-63
2022/11/19 14:32:29;;;;;;;2.13;1.47;;;;;;;;;;5099856;28;20672;-65
2022/11/19 14:35:10;;;;;;;6.57;4.27;;;;;;;;;;5089434;28;20213;-60
2022/11/19 14:37:39;;;;;;;4.53;2.83;;;;;;;;;;5090027;28;20213;-63
2022/11/19 14:40:09;;;;;;;4.57;3.07;;;;;;;;;;5096543;28;20205;-65
2022/11/19 14:44:06;;;;;;;3.87;3.47;;;;;;;;;;5086928;28;20213;-67
2022/11/19 14:45:23;;;;;;;5.53;3.30;;;;;;;;;;5088837;28;20735;-66
2022/11/19 14:48:03;;;;;;;4.43;2.93;;;;;;;;;;5089507;28;20580;-65
2022/11/19 14:50:31;;;;;;;2.67;2.47;;;;;;;;;;5094168;28;20228;-65
2022/11/19 14:52:59;;;;;;;5.67;2.53;;;;;;;;;;5088883;28;20305;-65
2022/11/19 14:55:27;;;;;;;7.17;4.83;;;;;;;;;;5089675;28;20248;-64
2022/11/19 14:57:57;;;;;;;3.87;3.30;;;;;;;;;;5090463;28;20234;-64
2022/11/19 15:00:27;;;;;;;5.27;2.63;;;;;;;;;;5089561;28;20207;-64
2022/11/19 15:02:56;;;;;;;4.77;2.93;;;;;;;;;;5103785;28;20197;-66
2022/11/19 15:05:29;;;;;;;5.53;3.10;;;;;;;;;;5088975;28;20353;-65
2022/11/19 15:08:11;;;;;;;5.13;2.80;;;;;;;;;;5088128;28;20581;-64
2022/11/19 15:10:48;;;;;;;5.73;3.87;;;;;;;;;;5090368;28;20206;-65
2022/11/19 15:13:33;;;;;;;3.50;3.30;;;;;;;;;;5103050;28;20204;-65
2022/11/19 15:16:07;;;;;;;6.63;3.83;;;;;;;;;;5109062;28;20216;-65
2022/11/19 15:18:52;;;;;;;2.60;2.27;;;;;;;;;;5097343;28;20316;-65
2022/11/19 15:21:28;;;;;;;4.50;1.97;;;;;;;;;;5089222;28;20664;-66
2022/11/19 15:24:00;;;;;;;3.77;3.47;;;;;;;;;;5097746;28;20209;-65
2022/11/19 15:26:32;;;;;;;4.80;4.07;;;;;;;;;;5088059;28;20683;-65
2022/11/19 15:29:05;;;;;;;7.67;4.10;;;;;;;;;;5103448;28;20193;-65
2022/11/19 15:31:43;;;;;;;4.30;3.27;;;;;;;;;;5093678;28;20213;-63
2022/11/19 15:34:18;;;;;;;3.87;3.30;;;;;;;;;;5104384;28;20542;-63
2022/11/19 15:36:47;;;;;;;1.20;1.10;;;;;;;;;;5094826;28;20193;-64
2022/11/19 15:39:16;;;;;;;3.27;2.97;;;;;;;;;;5092468;28;20779;-63
2022/11/19 15:41:59;;;;;;;10.00;4.97;;;;;;;;;;5099029;28;20228;-63